sensor_id;sensor_type;location;lat;lon;timestamp;pressure;altitude;pressure_sealevel;temperature;humidity
48792;BME280;34587;48.816;9.420;2023-04-08T04:17:37;99084.06;;;6.73;95.45
48792;BME280;34587;48.816;9.420;2023-04-08T04:20:05;99084.03;;;6.61;96.60
48792;BME280;34587;48.816;9.420;2023-04-08T04:22:31;99081.50;;;6.81;95.90
48792;BME280;34587;48.816;9.420;2023-04-08T04:24:56;99078.03;;;6.65;95.78
48792;BME280;34587;48.816;9.420;2023-04-08T04:27:21;99080.59;;;6.65;96.23
48792;BME280;34587;48.816;9.420;2023-04-08T04:29:47;99079.75;;;6.67;96.66
48792;BME280;34587;48.816;9.420;2023-04-08T04:32:12;99078.84;;;6.52;96.53
48792;BME280;34587;48.816;9.420;2023-04-08T04:34:37;99080.59;;;6.62;96.56
48792;BME280;34587;48.816;9.420;2023-04-08T04:37:03;99090.84;;;6.47;97.20
48792;BME280;34587;48.816;9.420;2023-04-08T04:39:28;99085.72;;;6.53;97.42
48792;BME280;34587;48.816;9.420;2023-04-08T04:41:53;99089.09;;;6.42;97.95
48792;BME280;34587;48.816;9.420;2023-04-08T04:44:19;99089.03;;;6.27;98.33
48792;BME280;34587;48.816;9.420;2023-04-08T04:46:44;99089.06;;;6.30;98.80
48792;BME280;34587;48.816;9.420;2023-04-08T04:49:10;99092.50;;;6.32;98.67
48792;BME280;34587;48.816;9.420;2023-04-08T04:51:35;99098.53;;;6.40;98.18
48792;BME280;34587;48.816;9.420;2023-04-08T04:54:00;99097.69;;;6.41;97.75
48792;BME280;34587;48.816;9.420;2023-04-08T04:56:26;99102.84;;;6.41;97.52
48792;BME280;34587;48.816;9.420;2023-04-08T04:58:52;99100.25;;;6.40;98.00
48792;BME280;34587;48.816;9.420;2023-04-08T05:01:17;99104.53;;;6.36;97.72
48792;BME280;34587;48.816;9.420;2023-04-08T05:03:42;99110.50;;;6.29;98.52
48792;BME280;34587;48.816;9.420;2023-04-08T05:06:08;99113.16;;;6.44;98.54
48792;BME280;34587;48.816;9.420;2023-04-08T05:08:33;99112.25;;;6.42;97.40
48792;BME280;34587;48.816;9.420;2023-04-08T05:10:58;99120.84;;;6.43;97.10
48792;BME280;34587;48.816;9.420;2023-04-08T05:13:27;99123.47;;;6.54;96.99
48792;BME280;34587;48.816;9.420;2023-04-08T05:15:52;99126.91;;;6.53;97.11
48792;BME280;34587;48.816;9.420;2023-04-08T05:18:17;99125.16;;;6.52;97.10
48792;BME280;34587;48.816;9.420;2023-04-08T05:20:43;99118.41;;;6.74;95.82
48792;BME280;34587;48.816;9.420;2023-04-08T05:23:09;99117.53;;;6.70;95.16
48792;BME280;34587;48.816;9.420;2023-04-08T05:25:34;99125.25;;;6.81;95.10
48792;BME280;34587;48.816;9.420;2023-04-08T05:28:00;99125.25;;;6.76;95.63
48792;BME280;34587;48.816;9.420;2023-04-08T05:30:25;99130.41;;;6.79;96.01
48792;BME280;34587;48.816;9.420;2023-04-08T05:32:51;99127.03;;;6.99;95.01
48792;BME280;34587;48.816;9.420;2023-04-08T05:35:16;99133.03;;;6.82;94.22
48792;BME280;34587;48.816;9.420;2023-04-08T05:37:41;99126.16;;;6.89;94.33
48792;BME280;34587;48.816;9.420;2023-04-08T05:40:07;99127.91;;;7.07;93.87
48792;BME280;34587;48.816;9.420;2023-04-08T05:42:33;99135.63;;;6.91;94.13
48792;BME280;34587;48.816;9.420;2023-04-08T05:44:58;99133.91;;;7.00;94.04
48792;BME280;34587;48.816;9.420;2023-04-08T05:47:23;99138.19;;;6.99;94.29
48792;BME280;34587;48.816;9.420;2023-04-08T05:49:49;99138.22;;;7.14;93.50
48792;BME280;34587;48.816;9.420;2023-04-08T05:52:14;99141.69;;;7.22;93.34
48792;BME280;34587;48.816;9.420;2023-04-08T05:54:42;99147.69;;;7.32;92.30
48792;BME280;34587;48.816;9.420;2023-04-08T05:57:07;99144.25;;;7.42;91.92
48792;BME280;34587;48.816;9.420;2023-04-08T05:59:33;99146.00;;;7.50;91.08
48792;BME280;34587;48.816;9.420;2023-04-08T06:01:58;99142.56;;;7.47;90.41
48792;BME280;34587;48.816;9.420;2023-04-08T06:04:23;99151.16;;;7.65;89.37
48792;BME280;34587;48.816;9.420;2023-04-08T06:06:49;99152.88;;;7.51;89.26
48792;BME280;34587;48.816;9.420;2023-04-08T06:09:14;99154.56;;;7.42;89.85
48792;BME280;34587;48.816;9.420;2023-04-08T06:11:39;99159.75;;;7.42;90.52
48792;BME280;34587;48.816;9.420;2023-04-08T06:14:05;99163.19;;;7.51;90.37
48792;BME280;34587;48.816;9.420;2023-04-08T06:16:30;99158.03;;;7.63;89.07
48792;BME280;34587;48.816;9.420;2023-04-08T06:18:56;99159.75;;;7.70;88.65
48792;BME280;34587;48.816;9.420;2023-04-08T06:21:21;99154.59;;;7.70;88.50
48792;BME280;34587;48.816;9.420;2023-04-08T06:23:46;99164.91;;;7.50;87.86
48792;BME280;34587;48.816;9.420;2023-04-08T06:26:12;99168.34;;;7.69;87.28
48792;BME280;34587;48.816;9.420;2023-04-08T06:28:37;99170.91;;;7.57;87.47
48792;BME280;34587;48.816;9.420;2023-04-08T06:31:03;99170.06;;;7.42;87.71
48792;BME280;34587;48.816;9.420;2023-04-08T06:33:29;99176.06;;;7.35;87.97
48792;BME280;34587;48.816;9.420;2023-04-08T06:36:02;99178.66;;;7.47;88.21
48792;BME280;34587;48.816;9.420;2023-04-08T06:38:28;99176.06;;;7.58;88.44
48792;BME280;34587;48.816;9.420;2023-04-08T06:40:53;99180.38;;;7.70;87.35
48792;BME280;34587;48.816;9.420;2023-04-08T06:43:18;99178.63;;;7.78;87.21
48792;BME280;34587;48.816;9.420;2023-04-08T06:45:44;99178.66;;;7.90;86.41
48792;BME280;34587;48.816;9.420;2023-04-08T06:48:09;99184.66;;;8.08;85.29
48792;BME280;34587;48.816;9.420;2023-04-08T06:50:34;99179.47;;;8.23;84.56
48792;BME280;34587;48.816;9.420;2023-04-08T06:53:00;99186.34;;;8.32;84.49
48792;BME280;34587;48.816;9.420;2023-04-08T06:55:25;99181.16;;;8.29;83.68
48792;BME280;34587;48.816;9.420;2023-04-08T06:57:51;99188.03;;;8.45;82.79
48792;BME280;34587;48.816;9.420;2023-04-08T07:00:16;99182.91;;;8.22;83.71
48792;BME280;34587;48.816;9.420;2023-04-08T07:02:42;99190.59;;;8.36;83.94
48792;BME280;34587;48.816;9.420;2023-04-08T07:05:07;99183.72;;;8.45;82.12
48792;BME280;34587;48.816;9.420;2023-04-08T07:07:32;99181.97;;;8.63;82.40
48792;BME280;34587;48.816;9.420;2023-04-08T07:09:58;99180.84;;;9.19;79.44
48792;BME280;34587;48.816;9.420;2023-04-08T07:12:23;99179.97;;;9.17;78.95
48792;BME280;34587;48.816;9.420;2023-04-08T07:14:48;99177.47;;;9.05;78.80
48792;BME280;34587;48.816;9.420;2023-04-08T07:17:14;99178.09;;;9.43;76.88
48792;BME280;34587;48.816;9.420;2023-04-08T07:19:40;99179.28;;;8.87;78.58
48792;BME280;34587;48.816;9.420;2023-04-08T07:22:05;99178.09;;;9.40;77.50
48792;BME280;34587;48.816;9.420;2023-04-08T07:24:30;99180.47;;;9.69;76.94
48792;BME280;34587;48.816;9.420;2023-04-08T07:26:56;99185.09;;;9.23;77.45
48792;BME280;34587;48.816;9.420;2023-04-08T07:29:21;99183.16;;;9.59;78.16
48792;BME280;34587;48.816;9.420;2023-04-08T07:31:46;99192.69;;;9.50;77.23
48792;BME280;34587;48.816;9.420;2023-04-08T07:34:12;99192.94;;;9.12;78.48
48792;BME280;34587;48.816;9.420;2023-04-08T07:36:37;99198.19;;;8.95;80.02
48792;BME280;34587;48.816;9.420;2023-04-08T07:39:03;99191.38;;;8.73;80.10
48792;BME280;34587;48.816;9.420;2023-04-08T07:41:28;99198.22;;;8.88;79.89
48792;BME280;34587;48.816;9.420;2023-04-08T07:43:54;99206.06;;;8.63;80.74
48792;BME280;34587;48.816;9.420;2023-04-08T07:46:20;99211.19;;;8.74;80.30
48792;BME280;34587;48.816;9.420;2023-04-08T07:48:45;99207.78;;;8.66;80.61
48792;BME280;34587;48.816;9.420;2023-04-08T07:51:11;99210.44;;;8.43;81.44
48792;BME280;34587;48.816;9.420;2023-04-08T07:53:37;99208.56;;;8.83;79.66
48792;BME280;34587;48.816;9.420;2023-04-08T07:56:10;99207.69;;;8.84;79.29
48792;BME280;34587;48.816;9.420;2023-04-08T07:58:35;99214.53;;;9.00;79.11
48792;BME280;34587;48.816;9.420;2023-04-08T08:01:00;99218.00;;;8.96;78.45
48792;BME280;34587;48.816;9.420;2023-04-08T08:03:26;99219.66;;;9.10;79.31
48792;BME280;34587;48.816;9.420;2023-04-08T08:05:51;99235.31;;;8.70;80.88
48792;BME280;34587;48.816;9.420;2023-04-08T08:08:17;99227.56;;;8.70;81.45
48792;BME280;34587;48.816;9.420;2023-04-08T08:10:42;99225.72;;;8.98;80.98
48792;BME280;34587;48.816;9.420;2023-04-08T08:13:08;99217.84;;;9.27;78.43
48792;BME280;34587;48.816;9.420;2023-04-08T08:15:33;99220.06;;;9.79;74.64
48792;BME280;34587;48.816;9.420;2023-04-08T08:17:58;99211.69;;;10.51;70.79
48792;BME280;34587;48.816;9.420;2023-04-08T08:20:24;99215.09;;;11.84;65.23
48792;BME280;34587;48.816;9.420;2023-04-08T08:22:50;99217.88;;;12.26;63.52
48792;BME280;34587;48.816;9.420;2023-04-08T08:25:16;99214.56;;;11.62;64.16
48792;BME280;34587;48.816;9.420;2023-04-08T08:27:42;99216.06;;;11.17;64.98
48792;BME280;34587;48.816;9.420;2023-04-08T08:30:08;99213.22;;;11.35;65.83
48792;BME280;34587;48.816;9.420;2023-04-08T08:32:33;99219.09;;;12.54;62.19
48792;BME280;34587;48.816;9.420;2023-04-08T08:34:59;99215.47;;;12.61;62.13
48792;BME280;34587;48.816;9.420;2023-04-08T08:37:24;99211.44;;;13.71;57.70
48792;BME280;34587;48.816;9.420;2023-04-08T08:39:49;99215.38;;;14.23;56.60
48792;BME280;34587;48.816;9.420;2023-04-08T08:42:22;99225.69;;;13.92;57.33
48792;BME280;34587;48.816;9.420;2023-04-08T08:44:48;99218.41;;;13.31;58.59
48792;BME280;34587;48.816;9.420;2023-04-08T08:47:14;99222.59;;;13.76;57.97
48792;BME280;34587;48.816;9.420;2023-04-08T08:49:40;99220.28;;;13.63;58.81
48792;BME280;34587;48.816;9.420;2023-04-08T08:52:06;99234.88;;;11.94;62.45
48792;BME280;34587;48.816;9.420;2023-04-08T08:54:31;99225.13;;;13.42;59.00
48792;BME280;34587;48.816;9.420;2023-04-08T08:56:57;99229.75;;;14.03;56.19
48792;BME280;34587;48.816;9.420;2023-04-08T08:59:23;99229.88;;;13.97;56.08
48792;BME280;34587;48.816;9.420;2023-04-08T09:01:48;99222.44;;;14.18;54.09
48792;BME280;34587;48.816;9.420;2023-04-08T09:04:19;99225.44;;;15.00;53.00
48792;BME280;34587;48.816;9.420;2023-04-08T09:06:46;99234.47;;;15.18;52.20
48792;BME280;34587;48.816;9.420;2023-04-08T09:09:13;99225.25;;;14.77;52.88
48792;BME280;34587;48.816;9.420;2023-04-08T09:11:40;99230.94;;;13.90;56.01
48792;BME280;34587;48.816;9.420;2023-04-08T09:14:24;99226.28;;;14.70;54.01
48792;BME280;34587;48.816;9.420;2023-04-08T09:16:51;99234.50;;;14.22;54.10
48792;BME280;34587;48.816;9.420;2023-04-08T09:19:16;99240.13;;;13.69;55.46
48792;BME280;34587;48.816;9.420;2023-04-08T09:21:43;99237.22;;;14.17;55.07
48792;BME280;34587;48.816;9.420;2023-04-08T09:24:09;99233.59;;;14.23;53.96
48792;BME280;34587;48.816;9.420;2023-04-08T09:26:50;99238.59;;;13.60;54.90
48792;BME280;34587;48.816;9.420;2023-04-08T09:29:16;99237.84;;;13.13;57.67
48792;BME280;34587;48.816;9.420;2023-04-08T09:31:41;99240.56;;;14.22;54.23
48792;BME280;34587;48.816;9.420;2023-04-08T09:34:11;99231.78;;;15.51;50.19
48792;BME280;34587;48.816;9.420;2023-04-08T09:36:37;99233.47;;;15.81;49.67
48792;BME280;34587;48.816;9.420;2023-04-08T09:39:03;99222.38;;;17.01;46.54
48792;BME280;34587;48.816;9.420;2023-04-08T09:41:33;99229.38;;;15.99;45.42
48792;BME280;34587;48.816;9.420;2023-04-08T09:44:01;99231.25;;;14.79;47.58
48792;BME280;34587;48.816;9.420;2023-04-08T09:49:10;99223.78;;;15.55;49.34
48792;BME280;34587;48.816;9.420;2023-04-08T09:51:44;99223.16;;;16.80;44.47
48792;BME280;34587;48.816;9.420;2023-04-08T09:54:14;99220.69;;;18.93;40.40
48792;BME280;34587;48.816;9.420;2023-04-08T09:56:48;99236.25;;;15.75;46.79
48792;BME280;34587;48.816;9.420;2023-04-08T09:59:16;99230.31;;;15.72;46.96
48792;BME280;34587;48.816;9.420;2023-04-08T10:01:51;99242.69;;;13.71;52.29
48792;BME280;34587;48.816;9.420;2023-04-08T10:04:19;99240.63;;;13.04;53.90
48792;BME280;34587;48.816;9.420;2023-04-08T10:06:51;99239.31;;;12.37;55.91
48792;BME280;34587;48.816;9.420;2023-04-08T10:09:20;99248.78;;;11.90;58.82
48792;BME280;34587;48.816;9.420;2023-04-08T10:11:47;99245.94;;;11.47;60.41
48792;BME280;34587;48.816;9.420;2023-04-08T10:14:12;99247.31;;;11.69;60.23
48792;BME280;34587;48.816;9.420;2023-04-08T10:16:37;99247.16;;;11.81;56.54
48792;BME280;34587;48.816;9.420;2023-04-08T10:19:35;99243.34;;;10.77;59.84
48792;BME280;34587;48.816;9.420;2023-04-08T10:22:02;99247.13;;;11.23;58.32
48792;BME280;34587;48.816;9.420;2023-04-08T10:24:28;99244.91;;;10.94;59.08
48792;BME280;34587;48.816;9.420;2023-04-08T10:26:53;99244.16;;;10.81;59.18
48792;BME280;34587;48.816;9.420;2023-04-08T10:31:50;99241.06;;;11.24;57.54
48792;BME280;34587;48.816;9.420;2023-04-08T10:34:17;99234.59;;;11.52;57.08
48792;BME280;34587;48.816;9.420;2023-04-08T10:36:43;99232.22;;;11.37;56.82
48792;BME280;34587;48.816;9.420;2023-04-08T10:39:09;99232.25;;;11.34;55.88
48792;BME280;34587;48.816;9.420;2023-04-08T10:41:41;99241.72;;;11.38;55.63
48792;BME280;34587;48.816;9.420;2023-04-08T10:44:17;99236.09;;;11.69;55.54
48792;BME280;34587;48.816;9.420;2023-04-08T10:46:44;99239.66;;;11.62;54.49
48792;BME280;34587;48.816;9.420;2023-04-08T10:49:11;99237.84;;;11.67;54.51
48792;BME280;34587;48.816;9.420;2023-04-08T10:51:37;99244.53;;;11.85;53.55
48792;BME280;34587;48.816;9.420;2023-04-08T10:54:07;99243.06;;;11.65;52.85
48792;BME280;34587;48.816;9.420;2023-04-08T10:56:34;99247.47;;;11.58;52.42
48792;BME280;34587;48.816;9.420;2023-04-08T10:58:59;99234.75;;;12.00;51.70
48792;BME280;34587;48.816;9.420;2023-04-08T11:01:25;99245.16;;;11.99;50.71
48792;BME280;34587;48.816;9.420;2023-04-08T11:03:51;99239.78;;;11.52;52.25
48792;BME280;34587;48.816;9.420;2023-04-08T11:06:16;99236.41;;;11.46;52.46
48792;BME280;34587;48.816;9.420;2023-04-08T11:08:42;99234.88;;;11.31;51.85
48792;BME280;34587;48.816;9.420;2023-04-08T11:11:09;99242.56;;;11.42;49.50
48792;BME280;34587;48.816;9.420;2023-04-08T11:13:37;99234.94;;;11.28;50.36
48792;BME280;34587;48.816;9.420;2023-04-08T11:16:05;99236.66;;;11.29;49.98
48792;BME280;34587;48.816;9.420;2023-04-08T11:18:31;99240.22;;;11.22;50.91
48792;BME280;34587;48.816;9.420;2023-04-08T11:20:59;99239.66;;;11.62;49.78
48792;BME280;34587;48.816;9.420;2023-04-08T11:23:24;99236.22;;;11.59;49.87
48792;BME280;34587;48.816;9.420;2023-04-08T11:25:50;99241.75;;;11.35;48.76
48792;BME280;34587;48.816;9.420;2023-04-08T11:28:16;99243.34;;;10.77;49.73
48792;BME280;34587;48.816;9.420;2023-04-08T11:30:42;99245.88;;;10.82;50.54
48792;BME280;34587;48.816;9.420;2023-04-08T11:33:08;99246.16;;;10.58;51.04
48792;BME280;34587;48.816;9.420;2023-04-08T11:35:41;99253.03;;;10.62;50.96
48792;BME280;34587;48.816;9.420;2023-04-08T11:38:08;99250.13;;;10.89;50.12
48792;BME280;34587;48.816;9.420;2023-04-08T11:40:34;99249.09;;;11.04;50.30
48792;BME280;34587;48.816;9.420;2023-04-08T11:43:08;99249.50;;;10.69;50.50
48792;BME280;34587;48.816;9.420;2023-04-08T11:45:40;99248.31;;;10.96;49.11
48792;BME280;34587;48.816;9.420;2023-04-08T11:48:14;99250.66;;;11.16;50.19
48792;BME280;34587;48.816;9.420;2023-04-08T11:50:41;99243.19;;;10.93;48.15
48792;BME280;34587;48.816;9.420;2023-04-08T11:53:24;99247.44;;;10.98;46.57
48792;BME280;34587;48.816;9.420;2023-04-08T11:55:50;99258.91;;;10.76;48.17
48792;BME280;34587;48.816;9.420;2023-04-08T11:58:16;99256.88;;;11.04;47.27
48792;BME280;34587;48.816;9.420;2023-04-08T12:00:42;99260.31;;;11.04;48.64
48792;BME280;34587;48.816;9.420;2023-04-08T12:03:08;99250.28;;;11.46;47.09
48792;BME280;34587;48.816;9.420;2023-04-08T12:05:34;99248.84;;;11.84;46.00
48792;BME280;34587;48.816;9.420;2023-04-08T12:08:00;99253.06;;;11.94;46.05
48792;BME280;34587;48.816;9.420;2023-04-08T12:10:25;99251.44;;;11.21;47.34
48792;BME280;34587;48.816;9.420;2023-04-08T12:12:51;99257.50;;;11.23;47.50
48792;BME280;34587;48.816;9.420;2023-04-08T12:15:16;99259.78;;;11.44;46.95
48792;BME280;34587;48.816;9.420;2023-04-08T12:17:42;99254.31;;;11.02;48.95
48792;BME280;34587;48.816;9.420;2023-04-08T12:20:11;99256.19;;;10.88;48.55
48792;BME280;34587;48.816;9.420;2023-04-08T12:22:37;99253.38;;;11.05;48.78
48792;BME280;34587;48.816;9.420;2023-04-08T12:25:02;99258.66;;;10.97;48.71
48792;BME280;34587;48.816;9.420;2023-04-08T12:27:31;99260.31;;;11.04;49.57
48792;BME280;34587;48.816;9.420;2023-04-08T12:30:01;99252.06;;;11.41;49.47
48792;BME280;34587;48.816;9.420;2023-04-08T12:32:26;99253.56;;;11.57;50.23
48792;BME280;34587;48.816;9.420;2023-04-08T12:34:52;99253.22;;;11.82;48.77
48792;BME280;34587;48.816;9.420;2023-04-08T12:37:17;99254.19;;;11.75;47.39
48792;BME280;34587;48.816;9.420;2023-04-08T12:39:42;99257.53;;;11.85;47.96
48792;BME280;34587;48.816;9.420;2023-04-08T12:42:08;99265.28;;;11.86;48.46
48792;BME280;34587;48.816;9.420;2023-04-08T12:44:33;99251.72;;;11.66;48.51
48792;BME280;34587;48.816;9.420;2023-04-08T12:46:58;99259.31;;;11.15;50.09
48792;BME280;34587;48.816;9.420;2023-04-08T12:49:24;99264.53;;;11.12;50.54
48792;BME280;34587;48.816;9.420;2023-04-08T12:51:50;99263.19;;;10.80;51.70
48792;BME280;34587;48.816;9.420;2023-04-08T12:54:15;99270.69;;;10.14;53.99
48792;BME280;34587;48.816;9.420;2023-04-08T12:56:41;99275.00;;;10.16;54.06
48792;BME280;34587;48.816;9.420;2023-04-08T12:59:07;99263.59;;;10.40;54.04
48792;BME280;34587;48.816;9.420;2023-04-08T13:01:33;99260.94;;;10.48;53.52
48792;BME280;34587;48.816;9.420;2023-04-08T13:03:58;99259.91;;;10.66;54.02
48792;BME280;34587;48.816;9.420;2023-04-08T13:06:24;99254.50;;;10.84;52.75
48792;BME280;34587;48.816;9.420;2023-04-08T13:08:49;99257.31;;;10.66;53.53
48792;BME280;34587;48.816;9.420;2023-04-08T13:11:15;99264.13;;;10.74;53.51
48792;BME280;34587;48.816;9.420;2023-04-08T13:13:40;99257.00;;;10.93;53.50
48792;BME280;34587;48.816;9.420;2023-04-08T13:16:05;99261.66;;;10.64;53.31
48792;BME280;34587;48.816;9.420;2023-04-08T13:18:31;99251.59;;;11.10;53.07
48792;BME280;34587;48.816;9.420;2023-04-08T13:20:56;99243.94;;;11.02;52.45
48792;BME280;34587;48.816;9.420;2023-04-08T13:23:22;99255.91;;;11.13;53.18
48792;BME280;34587;48.816;9.420;2023-04-08T13:25:48;99250.97;;;10.91;53.08
48792;BME280;34587;48.816;9.420;2023-04-08T13:28:13;99242.81;;;11.22;53.91
48792;BME280;34587;48.816;9.420;2023-04-08T13:30:39;99240.34;;;11.13;52.32
48792;BME280;34587;48.816;9.420;2023-04-08T13:33:04;99242.41;;;11.49;51.87
48792;BME280;34587;48.816;9.420;2023-04-08T13:35:30;99240.72;;;11.48;52.04
48792;BME280;34587;48.816;9.420;2023-04-08T13:37:56;99241.41;;;11.59;51.74
48792;BME280;34587;48.816;9.420;2023-04-08T13:40:21;99238.28;;;11.36;51.37
48792;BME280;34587;48.816;9.420;2023-04-08T13:42:46;99241.13;;;11.78;50.71
48792;BME280;34587;48.816;9.420;2023-04-08T13:45:12;99240.03;;;11.96;51.34
48792;BME280;34587;48.816;9.420;2023-04-08T13:47:37;99247.50;;;11.57;51.70
48792;BME280;34587;48.816;9.420;2023-04-08T13:50:03;99239.97;;;11.99;51.41
48792;BME280;34587;48.816;9.420;2023-04-08T13:52:29;99239.34;;;11.85;50.90
48792;BME280;34587;48.816;9.420;2023-04-08T13:54:54;99237.28;;;12.03;49.98
48792;BME280;34587;48.816;9.420;2023-04-08T13:57:19;99241.34;;;11.66;51.17
48792;BME280;34587;48.816;9.420;2023-04-08T13:59:45;99249.88;;;11.12;51.42
48792;BME280;34587;48.816;9.420;2023-04-08T14:02:10;99241.13;;;11.16;51.72
48792;BME280;34587;48.816;9.420;2023-04-08T14:04:35;99243.41;;;11.42;51.40
48792;BME280;34587;48.816;9.420;2023-04-08T14:07:01;99235.06;;;11.19;51.59
48792;BME280;34587;48.816;9.420;2023-04-08T14:09:26;99248.75;;;11.30;52.89
48792;BME280;34587;48.816;9.420;2023-04-08T14:11:51;99240.66;;;10.88;52.56
48792;BME280;34587;48.816;9.420;2023-04-08T14:14:17;99252.31;;;11.23;51.28
48792;BME280;34587;48.816;9.420;2023-04-08T14:16:42;99243.75;;;11.76;50.71
48792;BME280;34587;48.816;9.420;2023-04-08T14:19:08;99248.38;;;12.15;49.97
48792;BME280;34587;48.816;9.420;2023-04-08T14:21:33;99251.78;;;11.59;50.63
48792;BME280;34587;48.816;9.420;2023-04-08T14:23:58;99252.94;;;12.00;50.29
48792;BME280;34587;48.816;9.420;2023-04-08T14:26:24;99249.63;;;11.89;49.79
48792;BME280;34587;48.816;9.420;2023-04-08T14:28:49;99246.19;;;11.90;49.79
48792;BME280;34587;48.816;9.420;2023-04-08T14:31:14;99246.66;;;11.55;50.32
48792;BME280;34587;48.816;9.420;2023-04-08T14:33:41;99249.63;;;11.89;50.51
48792;BME280;34587;48.816;9.420;2023-04-08T14:36:07;99251.59;;;11.75;50.86
48792;BME280;34587;48.816;9.420;2023-04-08T14:38:33;99246.56;;;11.63;50.35
48792;BME280;34587;48.816;9.420;2023-04-08T14:40:58;99259.56;;;11.59;51.26
48792;BME280;34587;48.816;9.420;2023-04-08T14:43:23;99255.03;;;11.74;51.86
48792;BME280;34587;48.816;9.420;2023-04-08T14:45:49;99252.28;;;11.88;50.32
48792;BME280;34587;48.816;9.420;2023-04-08T14:48:16;99263.56;;;11.85;50.47
48792;BME280;34587;48.816;9.420;2023-04-08T14:50:41;99265.09;;;11.37;51.64
48792;BME280;34587;48.816;9.420;2023-04-08T14:53:06;99263.63;;;11.79;50.21
48792;BME280;34587;48.816;9.420;2023-04-08T14:55:31;99263.88;;;11.62;51.27
48792;BME280;34587;48.816;9.420;2023-04-08T14:57:57;99267.03;;;11.19;52.37
48792;BME280;34587;48.816;9.420;2023-04-08T15:00:22;99267.22;;;11.69;51.95
48792;BME280;34587;48.816;9.420;2023-04-08T15:02:48;99263.72;;;11.73;50.95
48792;BME280;34587;48.816;9.420;2023-04-08T15:05:13;99269.75;;;11.73;51.66
48792;BME280;34587;48.816;9.420;2023-04-08T15:07:38;99271.78;;;11.53;52.97
48792;BME280;34587;48.816;9.420;2023-04-08T15:10:04;99270.19;;;11.43;53.51
48792;BME280;34587;48.816;9.420;2023-04-08T15:12:30;99267.75;;;11.32;53.82
48792;BME280;34587;48.816;9.420;2023-04-08T15:14:57;99274.78;;;11.21;54.07
48792;BME280;34587;48.816;9.420;2023-04-08T15:17:22;99277.38;;;11.24;54.28
48792;BME280;34587;48.816;9.420;2023-04-08T15:19:47;99279.00;;;11.31;53.64
48792;BME280;34587;48.816;9.420;2023-04-08T15:22:13;99276.78;;;11.00;55.27
48792;BME280;34587;48.816;9.420;2023-04-08T15:24:39;99280.22;;;11.02;54.88
48792;BME280;34587;48.816;9.420;2023-04-08T15:27:04;99282.59;;;11.22;54.21
48792;BME280;34587;48.816;9.420;2023-04-08T15:29:30;99283.66;;;11.04;55.04
48792;BME280;34587;48.816;9.420;2023-04-08T15:31:55;99287.19;;;10.97;54.30
48792;BME280;34587;48.816;9.420;2023-04-08T15:34:20;99281.19;;;10.94;54.45
48792;BME280;34587;48.816;9.420;2023-04-08T15:36:46;99283.81;;;10.88;55.05
48792;BME280;34587;48.816;9.420;2023-04-08T15:39:11;99291.00;;;10.66;55.36
48792;BME280;34587;48.816;9.420;2023-04-08T15:41:36;99285.91;;;10.57;56.48
48792;BME280;34587;48.816;9.420;2023-04-08T15:44:02;99290.91;;;10.75;55.82
48792;BME280;34587;48.816;9.420;2023-04-08T15:46:27;99293.66;;;10.60;56.28
48792;BME280;34587;48.816;9.420;2023-04-08T15:48:53;99291.28;;;10.35;56.64
48792;BME280;34587;48.816;9.420;2023-04-08T15:51:18;99304.25;;;10.32;57.71
48792;BME280;34587;48.816;9.420;2023-04-08T15:53:44;99300.66;;;10.47;57.61
48792;BME280;34587;48.816;9.420;2023-04-08T15:56:16;99303.44;;;10.24;58.18
48792;BME280;34587;48.816;9.420;2023-04-08T15:58:42;99303.47;;;10.21;58.21
48792;BME280;34587;48.816;9.420;2023-04-08T16:01:07;99308.00;;;9.88;59.35
48792;BME280;34587;48.816;9.420;2023-04-08T16:03:33;99312.25;;;9.95;59.06
48792;BME280;34587;48.816;9.420;2023-04-08T16:05:58;99314.03;;;9.90;58.91
48792;BME280;34587;48.816;9.420;2023-04-08T16:08:24;99304.50;;;9.95;59.62
48792;BME280;34587;48.816;9.420;2023-04-08T16:10:49;99310.59;;;9.88;60.15
48792;BME280;34587;48.816;9.420;2023-04-08T16:13:15;99314.84;;;9.95;59.30
48792;BME280;34587;48.816;9.420;2023-04-08T16:15:40;99318.41;;;9.81;59.81
48792;BME280;34587;48.816;9.420;2023-04-08T16:18:05;99322.59;;;9.98;59.72
48792;BME280;34587;48.816;9.420;2023-04-08T16:20:32;99319.09;;;10.05;59.76
48792;BME280;34587;48.816;9.420;2023-04-08T16:22:57;99327.91;;;9.80;60.99
48792;BME280;34587;48.816;9.420;2023-04-08T16:25:22;99329.56;;;9.90;60.36
48792;BME280;34587;48.816;9.420;2023-04-08T16:27:48;99319.28;;;9.79;59.82
48792;BME280;34587;48.816;9.420;2023-04-08T16:30:13;99322.75;;;9.74;60.31
48792;BME280;34587;48.816;9.420;2023-04-08T16:32:38;99322.72;;;9.83;60.06
48792;BME280;34587;48.816;9.420;2023-04-08T16:35:05;99327.03;;;9.81;60.24
48792;BME280;34587;48.816;9.420;2023-04-08T16:37:31;99329.59;;;9.81;60.46
48792;BME280;34587;48.816;9.420;2023-04-08T16:39:56;99326.94;;;9.98;60.27
48792;BME280;34587;48.816;9.420;2023-04-08T16:42:22;99338.25;;;9.80;60.33
48792;BME280;34587;48.816;9.420;2023-04-08T16:44:47;99335.56;;;9.95;60.35
48792;BME280;34587;48.816;9.420;2023-04-08T16:47:12;99331.31;;;9.88;60.45
48792;BME280;34587;48.816;9.420;2023-04-08T16:49:38;99334.75;;;9.87;60.39
48792;BME280;34587;48.816;9.420;2023-04-08T16:52:03;99336.59;;;9.70;61.36
48792;BME280;34587;48.816;9.420;2023-04-08T16:54:28;99333.16;;;9.68;61.17
48792;BME280;34587;48.816;9.420;2023-04-08T16:56:53;99335.66;;;9.80;60.72
48792;BME280;34587;48.816;9.420;2023-04-08T16:59:19;99343.38;;;9.92;60.43
48792;BME280;34587;48.816;9.420;2023-04-08T17:01:45;99343.38;;;9.86;60.56
48792;BME280;34587;48.816;9.420;2023-04-08T17:04:10;99349.50;;;9.71;60.86
48792;BME280;34587;48.816;9.420;2023-04-08T17:06:35;99350.44;;;9.57;61.12
48792;BME280;34587;48.816;9.420;2023-04-08T17:09:02;99347.84;;;9.61;61.76
48792;BME280;34587;48.816;9.420;2023-04-08T17:11:28;99350.41;;;9.66;61.79
48792;BME280;34587;48.816;9.420;2023-04-08T17:13:53;99355.50;;;9.79;61.94
48792;BME280;34587;48.816;9.420;2023-04-08T17:16:18;99359.84;;;9.71;61.62
48792;BME280;34587;48.816;9.420;2023-04-08T17:18:44;99364.16;;;9.71;61.58
48792;BME280;34587;48.816;9.420;2023-04-08T17:21:09;99373.81;;;9.43;62.69